Time;durP1;ratioP1;P1;durP2;ratioP2;P2;SDS_P1;SDS_P2;PMS_P1;PMS_P2;Temp;Humidity;BMP_temperature;BMP_pressure;BME280_temperature;BME280_humidity;BME280_pressure;Samples;Min_cycle;Max_cycle;Signal;HPM_P1;HPM_P2
2021/08/30 00:01:10;;;;;;;;;;;15.70;99.90;;;;;;4946074;29;20297;-77
2021/08/30 00:03:35;;;;;;;;;;;15.80;99.90;;;;;;4946494;28;19980;-76
2021/08/30 00:06:01;;;;;;;;;;;15.80;99.90;;;;;;4947579;28;19915;-77
2021/08/30 00:08:26;;;;;;;;;;;15.80;99.90;;;;;;4942928;28;19930;-78
2021/08/30 00:10:52;;;;;;;;;;;15.80;99.90;;;;;;4944169;28;20266;-77
2021/08/30 00:13:17;;;;;;;;;;;15.80;99.90;;;;;;4947772;28;19957;-78
2021/08/30 00:15:43;;;;;;;;;;;15.80;99.90;;;;;;4947056;28;20102;-77
2021/08/30 00:18:08;;;;;;;;;;;15.80;99.90;;;;;;4949009;28;20441;-77
2021/08/30 00:20:34;;;;;;;;;;;15.80;99.90;;;;;;4947055;28;20510;-78
2021/08/30 00:22:59;;;;;;;;;;;15.80;99.90;;;;;;4948191;28;20296;-78
2021/08/30 00:25:24;;;;;;;;;;;15.80;99.90;;;;;;4946795;29;19993;-77
2021/08/30 00:27:50;;;;;;;;;;;15.80;99.90;;;;;;4949207;28;20048;-77
2021/08/30 00:30:15;;;;;;;;;;;15.80;99.90;;;;;;4946485;28;19954;-77
2021/08/30 00:32:41;;;;;;;;;;;15.80;99.90;;;;;;4949352;28;20021;-77
2021/08/30 00:35:06;;;;;;;;;;;15.80;99.90;;;;;;4946955;28;19911;-78
2021/08/30 00:37:33;;;;;;;;;;;15.80;99.90;;;;;;4946901;29;19918;-77
2021/08/30 00:39:59;;;;;;;;;;;15.80;99.90;;;;;;4946597;28;19918;-78
2021/08/30 00:42:25;;;;;;;;;;;15.80;99.90;;;;;;4947460;28;19918;-78
2021/08/30 00:44:52;;;;;;;;;;;15.80;99.90;;;;;;4947763;28;19918;-78
2021/08/30 00:47:18;;;;;;;;;;;15.80;99.90;;;;;;4946811;29;19922;-77
2021/08/30 00:49:44;;;;;;;;;;;15.80;99.90;;;;;;4947398;28;19918;-77
2021/08/30 00:52:09;;;;;;;;;;;15.80;99.90;;;;;;4946025;29;20031;-77
2021/08/30 00:54:35;;;;;;;;;;;15.80;99.90;;;;;;4947896;28;19929;-77
2021/08/30 00:57:01;;;;;;;;;;;15.80;99.90;;;;;;4948399;29;19915;-78
2021/08/30 00:59:27;;;;;;;;;;;15.80;99.90;;;;;;4948802;28;20372;-77
2021/08/30 01:01:52;;;;;;;;;;;15.80;99.90;;;;;;4941566;28;20211;-77
2021/08/30 01:04:18;;;;;;;;;;;15.80;99.90;;;;;;4944620;28;19922;-78
2021/08/30 01:07:05;;;;;;;;;;;15.80;99.90;;;;;;4946557;29;20001;-78
2021/08/30 01:09:40;;;;;;;;;;;15.80;99.90;;;;;;4945809;28;20069;-78
2021/08/30 01:12:10;;;;;;;;;;;15.80;99.90;;;;;;4947824;28;19918;-78
2021/08/30 01:14:46;;;;;;;;;;;15.80;99.90;;;;;;4946882;28;20033;-77
2021/08/30 01:17:12;;;;;;;;;;;15.80;99.90;;;;;;4947665;28;20299;-77
2021/08/30 01:19:51;;;;;;;;;;;15.80;99.90;;;;;;4945943;28;19914;-77
2021/08/30 01:22:17;;;;;;;;;;;15.80;99.90;;;;;;4946875;28;19918;-78
2021/08/30 01:24:43;;;;;;;;;;;15.80;99.90;;;;;;4946879;28;19914;-77
2021/08/30 01:27:08;;;;;;;;;;;15.80;99.90;;;;;;4938253;28;19925;-77
2021/08/30 01:29:43;;;;;;;;;;;15.80;99.90;;;;;;4947244;28;19995;-77
2021/08/30 01:32:28;;;;;;;;;;;15.80;99.90;;;;;;4945597;29;20296;-76
2021/08/30 01:34:54;;;;;;;;;;;15.80;99.90;;;;;;4945908;28;20426;-77
2021/08/30 01:37:19;;;;;;;;;;;15.80;99.90;;;;;;4947078;28;19915;-77
2021/08/30 01:39:45;;;;;;;;;;;15.80;99.90;;;;;;4945710;28;19923;-76
2021/08/30 01:42:11;;;;;;;;;;;15.80;99.90;;;;;;4945364;29;19971;-77
2021/08/30 01:44:37;;;;;;;;;;;15.80;99.90;;;;;;4948139;28;19914;-76
2021/08/30 01:47:02;;;;;;;;;;;15.80;99.90;;;;;;4946083;28;19918;-76
2021/08/30 01:49:28;;;;;;;;;;;15.80;99.90;;;;;;4946878;28;19922;-75
2021/08/30 01:51:54;;;;;;;;;;;15.80;99.90;;;;;;4943559;28;19944;-76
2021/08/30 01:54:22;;;;;;;;;;;15.80;99.90;;;;;;4947966;28;19933;-77
2021/08/30 01:56:50;;;;;;;;;;;15.80;99.90;;;;;;4949333;29;19926;-77
2021/08/30 02:01:59;;;;;;;;;;;15.80;99.90;;;;;;4946571;28;19944;-76
2021/08/30 02:04:25;;;;;;;;;;;15.80;99.90;;;;;;4947248;28;19936;-76
2021/08/30 02:06:50;;;;;;;;;;;15.80;99.90;;;;;;4948072;29;20017;-76
2021/08/30 02:09:16;;;;;;;;;;;15.70;99.90;;;;;;4949805;28;19986;-76
2021/08/30 02:11:41;;;;;;;;;;;15.70;99.90;;;;;;4946053;29;20355;-76
2021/08/30 02:14:07;;;;;;;;;;;15.70;99.90;;;;;;4947651;29;20005;-76
2021/08/30 02:16:33;;;;;;;;;;;15.70;99.90;;;;;;4949288;29;19920;-76
2021/08/30 02:19:05;;;;;;;;;;;15.70;99.90;;;;;;4949692;28;19922;-76
2021/08/30 02:21:36;;;;;;;;;;;15.70;99.90;;;;;;4948395;28;19942;-76
2021/08/30 02:24:02;;;;;;;;;;;15.70;99.90;;;;;;4955935;28;19926;-75
2021/08/30 02:26:29;;;;;;;;;;;15.70;99.90;;;;;;4951970;28;19918;-75
2021/08/30 02:28:56;;;;;;;;;;;15.70;99.90;;;;;;4947300;28;20300;-76
2021/08/30 02:31:21;;;;;;;;;;;15.70;99.90;;;;;;4947709;28;19914;-76
2021/08/30 02:33:47;;;;;;;;;;;15.70;99.90;;;;;;4949911;29;19915;-76
2021/08/30 02:36:13;;;;;;;;;;;15.70;99.90;;;;;;4948558;28;19922;-75
2021/08/30 02:38:39;;;;;;;;;;;15.70;99.90;;;;;;4940638;28;19972;-75
2021/08/30 02:41:05;;;;;;;;;;;15.70;99.90;;;;;;4948313;28;19919;-75
2021/08/30 02:43:31;;;;;;;;;;;15.70;99.90;;;;;;4948045;28;19922;-76
2021/08/30 02:45:57;;;;;;;;;;;15.70;99.90;;;;;;4941493;28;19918;-76
2021/08/30 02:48:23;;;;;;;;;;;15.70;99.90;;;;;;4949182;28;19934;-76
2021/08/30 02:50:49;;;;;;;;;;;15.70;99.90;;;;;;4947050;28;19984;-76
2021/08/30 02:53:15;;;;;;;;;;;15.70;99.90;;;;;;4947698;28;20101;-76
2021/08/30 02:55:40;;;;;;;;;;;15.70;99.90;;;;;;4950316;28;20084;-76
2021/08/30 02:58:06;;;;;;;;;;;15.70;99.90;;;;;;4949209;28;19984;-76
2021/08/30 03:00:33;;;;;;;;;;;15.70;99.90;;;;;;4940230;28;19926;-75
2021/08/30 03:02:59;;;;;;;;;;;15.70;99.90;;;;;;4945353;28;19918;-75
2021/08/30 03:05:25;;;;;;;;;;;15.70;99.90;;;;;;4961100;28;19918;-75
2021/08/30 03:07:51;;;;;;;;;;;15.70;99.90;;;;;;4945970;28;20374;-75
2021/08/30 03:10:17;;;;;;;;;;;15.70;99.90;;;;;;4949967;28;20055;-75
2021/08/30 03:12:43;;;;;;;;;;;15.70;99.90;;;;;;4946243;28;19976;-75
2021/08/30 03:15:12;;;;;;;;;;;15.70;99.90;;;;;;4948046;28;20459;-76
2021/08/30 03:17:41;;;;;;;;;;;15.70;99.90;;;;;;4947018;29;19918;-75
2021/08/30 03:20:07;;;;;;;;;;;15.70;99.90;;;;;;4947326;28;20043;-76
2021/08/30 03:22:34;;;;;;;;;;;15.70;99.90;;;;;;4944711;28;19998;-75
2021/08/30 03:25:00;;;;;;;;;;;15.70;99.90;;;;;;4948662;28;19930;-76
2021/08/30 03:27:26;;;;;;;;;;;15.70;99.90;;;;;;4941063;28;20096;-76
2021/08/30 03:29:52;;;;;;;;;;;15.70;99.90;;;;;;4949061;28;20140;-75
2021/08/30 03:32:19;;;;;;;;;;;15.70;99.90;;;;;;4947294;28;19923;-75
2021/08/30 03:34:45;;;;;;;;;;;15.60;99.90;;;;;;4947506;29;19919;-74
2021/08/30 03:37:11;;;;;;;;;;;15.70;99.90;;;;;;4949005;28;19937;-75
2021/08/30 03:39:36;;;;;;;;;;;15.70;99.90;;;;;;4948485;28;20292;-75
2021/08/30 03:42:03;;;;;;;;;;;15.60;99.90;;;;;;4952621;28;19914;-76
2021/08/30 03:44:29;;;;;;;;;;;15.70;99.90;;;;;;4946097;29;20037;-75
2021/08/30 03:46:55;;;;;;;;;;;15.60;99.90;;;;;;4952061;28;19926;-75
2021/08/30 03:49:23;;;;;;;;;;;15.60;99.90;;;;;;4948421;28;20495;-76
2021/08/30 03:51:49;;;;;;;;;;;15.60;99.90;;;;;;4947454;29;19914;-76
2021/08/30 03:54:14;;;;;;;;;;;15.60;99.90;;;;;;4947106;29;19926;-75
2021/08/30 03:56:41;;;;;;;;;;;15.60;99.90;;;;;;4942482;28;20059;-75
2021/08/30 03:59:07;;;;;;;;;;;15.60;99.90;;;;;;4949430;28;19922;-76
2021/08/30 04:01:34;;;;;;;;;;;15.60;99.90;;;;;;4943322;28;21415;-76
2021/08/30 04:04:00;;;;;;;;;;;15.60;99.90;;;;;;4955235;28;20325;-75
2021/08/30 04:06:30;;;;;;;;;;;15.60;99.90;;;;;;4948900;28;19914;-75
2021/08/30 04:08:55;;;;;;;;;;;15.60;99.90;;;;;;4937256;28;19970;-75
2021/08/30 04:11:21;;;;;;;;;;;15.60;99.90;;;;;;4947035;28;20019;-75
2021/08/30 04:13:46;;;;;;;;;;;15.60;99.90;;;;;;4948712;29;19962;-75
2021/08/30 04:16:12;;;;;;;;;;;15.60;99.90;;;;;;4944740;28;20388;-77
2021/08/30 04:18:37;;;;;;;;;;;15.60;99.90;;;;;;4946042;28;19915;-77
2021/08/30 04:21:02;;;;;;;;;;;15.60;99.90;;;;;;4946629;28;19911;-77
2021/08/30 04:23:30;;;;;;;;;;;15.60;99.90;;;;;;4941244;28;20018;-74
2021/08/30 04:25:55;;;;;;;;;;;15.60;99.90;;;;;;4943600;28;19949;-75
2021/08/30 04:28:22;;;;;;;;;;;15.60;99.90;;;;;;4947101;28;20358;-77
2021/08/30 04:30:47;;;;;;;;;;;15.60;99.90;;;;;;4946882;29;20552;-77
2021/08/30 04:33:14;;;;;;;;;;;15.60;99.90;;;;;;4947923;28;19936;-76
2021/08/30 04:35:40;;;;;;;;;;;15.50;99.90;;;;;;4945874;28;19984;-75
2021/08/30 04:38:05;;;;;;;;;;;15.60;99.90;;;;;;4948065;28;20338;-76
2021/08/30 04:40:31;;;;;;;;;;;15.50;99.90;;;;;;4946352;28;19914;-76
2021/08/30 04:42:57;;;;;;;;;;;15.50;99.90;;;;;;4947671;28;19925;-75
2021/08/30 04:45:22;;;;;;;;;;;15.50;99.90;;;;;;4954210;28;20352;-76
2021/08/30 04:47:48;;;;;;;;;;;15.50;99.90;;;;;;4954728;28;19914;-76
2021/08/30 04:50:13;;;;;;;;;;;15.50;99.90;;;;;;4947909;28;19922;-77
2021/08/30 04:52:39;;;;;;;;;;;15.50;99.90;;;;;;4948871;28;19926;-76
2021/08/30 04:55:04;;;;;;;;;;;15.50;99.90;;;;;;4947050;29;19918;-76
2021/08/30 04:57:30;;;;;;;;;;;15.50;99.90;;;;;;4949346;28;19957;-76
2021/08/30 04:59:55;;;;;;;;;;;15.50;99.90;;;;;;4947779;28;19917;-75
2021/08/30 05:02:21;;;;;;;;;;;15.50;99.90;;;;;;4947142;28;19934;-75
2021/08/30 05:04:46;;;;;;;;;;;15.50;99.90;;;;;;4945491;28;19961;-76
2021/08/30 05:07:11;;;;;;;;;;;15.50;99.90;;;;;;4949966;28;19933;-75
2021/08/30 05:09:37;;;;;;;;;;;15.50;99.90;;;;;;4949791;28;20013;-76
2021/08/30 05:12:02;;;;;;;;;;;15.60;99.90;;;;;;4947474;28;19930;-75
2021/08/30 05:14:28;;;;;;;;;;;15.50;99.90;;;;;;4957077;28;19957;-76
2021/08/30 05:16:53;;;;;;;;;;;15.60;99.90;;;;;;4945604;28;19917;-79
2021/08/30 05:19:19;;;;;;;;;;;15.60;99.90;;;;;;4945773;28;20005;-77
2021/08/30 05:21:44;;;;;;;;;;;15.60;99.90;;;;;;4946610;28;20342;-77
2021/08/30 05:24:10;;;;;;;;;;;15.60;99.90;;;;;;4945516;28;20314;-78
2021/08/30 05:26:36;;;;;;;;;;;15.60;99.90;;;;;;4935942;28;20092;-77
2021/08/30 05:29:02;;;;;;;;;;;15.70;99.90;;;;;;4944320;28;19929;-77
2021/08/30 05:31:27;;;;;;;;;;;15.70;99.90;;;;;;4946497;28;19911;-77
2021/08/30 05:33:53;;;;;;;;;;;15.70;99.90;;;;;;4948519;28;19911;-77
2021/08/30 05:36:18;;;;;;;;;;;15.70;99.90;;;;;;4946954;28;19919;-77
2021/08/30 05:38:44;;;;;;;;;;;15.70;99.90;;;;;;4947690;28;19911;-77
2021/08/30 05:41:09;;;;;;;;;;;15.70;99.90;;;;;;4945653;28;19929;-77
2021/08/30 05:43:35;;;;;;;;;;;15.70;99.90;;;;;;4949356;28;19914;-77
2021/08/30 05:46:00;;;;;;;;;;;15.70;99.90;;;;;;4944829;28;19953;-77
2021/08/30 05:48:26;;;;;;;;;;;15.70;99.90;;;;;;4947126;28;19945;-77
2021/08/30 05:50:51;;;;;;;;;;;15.80;99.90;;;;;;4937054;28;20315;-77
2021/08/30 05:53:19;;;;;;;;;;;15.80;99.90;;;;;;4950028;28;19915;-76
2021/08/30 05:55:44;;;;;;;;;;;15.80;99.90;;;;;;4944142;28;19964;-77
2021/08/30 05:58:10;;;;;;;;;;;15.80;99.90;;;;;;4949388;28;20265;-77
2021/08/30 06:00:35;;;;;;;;;;;15.80;99.90;;;;;;5028847;22;19933;-79
2021/08/30 06:03:01;;;;;;;;;;;15.90;99.90;;;;;;5028375;28;19917;-80
2021/08/30 06:05:26;;;;;;;;;;;15.90;99.90;;;;;;5045452;28;19913;-79
2021/08/30 06:07:51;;;;;;;;;;;15.90;99.90;;;;;;5045270;28;20055;-79
2021/08/30 06:10:17;;;;;;;;;;;15.90;99.90;;;;;;5046183;28;20019;-79
2021/08/30 06:12:43;;;;;;;;;;;15.90;99.90;;;;;;5048690;28;19926;-78
2021/08/30 06:15:08;;;;;;;;;;;15.90;99.90;;;;;;5045469;28;19927;-81
2021/08/30 06:17:34;;;;;;;;;;;15.90;99.90;;;;;;5045871;28;20465;-80
2021/08/30 06:19:59;;;;;;;;;;;15.90;99.90;;;;;;5045588;28;19913;-79
2021/08/30 06:22:25;;;;;;;;;;;15.90;99.90;;;;;;5045259;28;19920;-80
2021/08/30 06:24:50;;;;;;;;;;;15.90;99.90;;;;;;5046865;28;19917;-81
2021/08/30 06:27:17;;;;;;;;;;;15.90;99.90;;;;;;5028025;28;19959;-81
2021/08/30 06:29:43;;;;;;;;;;;15.90;99.90;;;;;;5043927;28;20470;-80
2021/08/30 06:32:08;;;;;;;;;;;15.90;99.90;;;;;;5044982;28;19917;-80
2021/08/30 06:34:34;;;;;;;;;;;16.00;99.90;;;;;;5046175;28;19918;-79
2021/08/30 06:36:59;;;;;;;;;;;16.00;99.90;;;;;;5044512;28;20359;-81
2021/08/30 06:39:25;;;;;;;;;;;16.00;99.90;;;;;;5047864;28;19913;-80
2021/08/30 06:41:50;;;;;;;;;;;16.00;99.90;;;;;;5032636;28;20012;-80
2021/08/30 06:44:16;;;;;;;;;;;16.00;99.90;;;;;;5047700;28;20387;-77
2021/08/30 06:46:42;;;;;;;;;;;16.10;99.90;;;;;;5046260;28;20382;-78
2021/08/30 06:49:07;;;;;;;;;;;16.10;99.90;;;;;;5050136;28;19916;-79
2021/08/30 06:51:33;;;;;;;;;;;16.10;99.90;;;;;;5030502;28;19913;-79
2021/08/30 06:53:58;;;;;;;;;;;16.20;99.90;;;;;;5030988;28;19948;-78
2021/08/30 06:56:23;;;;;;;;;;;16.20;99.90;;;;;;5023508;28;19916;-79
2021/08/30 06:58:49;;;;;;;;;;;16.10;99.90;;;;;;5050079;28;19912;-79
2021/08/30 07:01:14;;;;;;;;;;;16.20;99.90;;;;;;5047636;28;19946;-79
2021/08/30 07:03:40;;;;;;;;;;;16.20;99.90;;;;;;5050209;28;19920;-78
2021/08/30 07:06:05;;;;;;;;;;;16.20;99.90;;;;;;5047715;28;19974;-78
2021/08/30 07:08:31;;;;;;;;;;;16.20;99.90;;;;;;5049254;28;19948;-79
2021/08/30 07:10:56;;;;;;;;;;;16.20;99.90;;;;;;5048125;28;20365;-81
2021/08/30 07:13:22;;;;;;;;;;;16.20;99.90;;;;;;5049679;28;19913;-82
2021/08/30 07:15:48;;;;;;;;;;;16.20;99.90;;;;;;5047729;28;20394;-82
2021/08/30 07:18:14;;;;;;;;;;;16.30;99.90;;;;;;5029020;28;19921;-79
2021/08/30 07:20:39;;;;;;;;;;;16.30;99.90;;;;;;5030818;28;20024;-79
2021/08/30 07:23:05;;;;;;;;;;;16.30;99.90;;;;;;5049377;28;20402;-80
2021/08/30 07:25:30;;;;;;;;;;;16.40;99.90;;;;;;5025104;28;20366;-84
2021/08/30 07:27:56;;;;;;;;;;;16.40;99.90;;;;;;5046379;28;19923;-80
2021/08/30 07:30:21;;;;;;;;;;;16.40;99.90;;;;;;5030925;28;19912;-81
2021/08/30 07:32:48;;;;;;;;;;;16.50;99.90;;;;;;5022410;28;19920;-81
2021/08/30 07:35:15;;;;;;;;;;;16.50;99.90;;;;;;5048347;28;19913;-81
2021/08/30 07:37:41;;;;;;;;;;;16.50;99.90;;;;;;5048962;28;20362;-80
2021/08/30 07:40:06;;;;;;;;;;;16.60;99.90;;;;;;5029756;28;19924;-80
2021/08/30 07:42:32;;;;;;;;;;;16.70;99.90;;;;;;5048257;28;20000;-81
2021/08/30 07:44:57;;;;;;;;;;;16.80;99.90;;;;;;5023653;28;19924;-80
2021/08/30 07:47:23;;;;;;;;;;;16.80;99.90;;;;;;5049098;28;19924;-81
2021/08/30 07:49:48;;;;;;;;;;;16.90;99.70;;;;;;5046867;28;19927;-83
2021/08/30 07:52:13;;;;;;;;;;;16.90;99.50;;;;;;5029566;28;20387;-80
2021/08/30 07:54:39;;;;;;;;;;;16.90;99.70;;;;;;5031824;28;19967;-81
2021/08/30 07:57:05;;;;;;;;;;;17.00;99.60;;;;;;5049996;28;19986;-80
2021/08/30 07:59:30;;;;;;;;;;;17.10;99.50;;;;;;5048856;28;20043;-78
2021/08/30 08:01:55;;;;;;;;;;;17.30;99.50;;;;;;5047666;28;19931;-79
2021/08/30 08:04:21;;;;;;;;;;;17.30;99.50;;;;;;5048128;28;19913;-78
2021/08/30 08:06:46;;;;;;;;;;;17.40;98.70;;;;;;5023275;28;19917;-79
2021/08/30 08:09:12;;;;;;;;;;;17.40;98.90;;;;;;5024679;28;20295;-78
2021/08/30 08:11:37;;;;;;;;;;;17.50;98.70;;;;;;5030049;28;19917;-79
2021/08/30 08:14:02;;;;;;;;;;;17.50;98.70;;;;;;5047785;28;19967;-77
2021/08/30 08:16:28;;;;;;;;;;;17.50;98.10;;;;;;5046801;28;19920;-80
2021/08/30 08:18:54;;;;;;;;;;;17.50;98.10;;;;;;5048313;28;19921;-78
2021/08/30 08:21:23;;;;;;;;;;;17.40;98.30;;;;;;5049273;28;19915;-80
2021/08/30 08:23:48;;;;;;;;;;;17.50;97.90;;;;;;5045581;28;20008;-80
2021/08/30 08:26:14;;;;;;;;;;;17.50;98.20;;;;;;5046537;28;20003;-79
2021/08/30 08:28:39;;;;;;;;;;;17.50;98.20;;;;;;5049119;28;20401;-77
2021/08/30 08:31:05;;;;;;;;;;;17.60;98.00;;;;;;5047538;28;19913;-80
2021/08/30 08:33:30;;;;;;;;;;;17.70;98.00;;;;;;5027416;28;19974;-78
2021/08/30 08:35:56;;;;;;;;;;;17.70;98.00;;;;;;5047676;28;19919;-79
2021/08/30 08:38:23;;;;;;;;;;;17.60;97.90;;;;;;5040700;28;19916;-78
2021/08/30 08:40:50;;;;;;;;;;;17.60;97.80;;;;;;5047095;28;20011;-81
2021/08/30 08:43:16;;;;;;;;;;;17.50;98.00;;;;;;5030221;28;19912;-80
2021/08/30 08:45:42;;;;;;;;;;;17.50;97.90;;;;;;5046685;28;19917;-83
2021/08/30 08:48:08;;;;;;;;;;;17.50;97.90;;;;;;5045757;28;19952;-80
2021/08/30 08:50:34;;;;;;;;;;;17.50;97.90;;;;;;5027665;28;19920;-83
2021/08/30 08:53:04;;;;;;;;;;;17.50;97.90;;;;;;5045151;28;19913;-77
2021/08/30 08:55:29;;;;;;;;;;;17.50;97.90;;;;;;5027513;28;20369;-80
2021/08/30 08:57:55;;;;;;;;;;;17.50;98.00;;;;;;5047588;28;19947;-80
2021/08/30 09:00:21;;;;;;;;;;;17.50;97.50;;;;;;5045550;28;20015;-81
2021/08/30 09:02:49;;;;;;;;;;;17.50;97.70;;;;;;5048223;28;19959;-81
2021/08/30 09:05:22;;;;;;;;;;;17.50;97.60;;;;;;5041722;28;20301;-80
2021/08/30 09:07:48;;;;;;;;;;;17.60;97.50;;;;;;5023352;28;20359;-81
2021/08/30 09:10:19;;;;;;;;;;;17.60;97.30;;;;;;5045882;28;20023;-82
2021/08/30 09:12:47;;;;;;;;;;;17.60;97.00;;;;;;5039025;28;20023;-81
2021/08/30 09:15:13;;;;;;;;;;;17.50;97.00;;;;;;5047434;28;19928;-81
2021/08/30 09:17:52;;;;;;;;;;;17.40;97.10;;;;;;5028649;28;20450;-82
2021/08/30 09:20:18;;;;;;;;;;;17.40;97.20;;;;;;5029886;28;19996;-80
2021/08/30 09:22:44;;;;;;;;;;;17.40;97.30;;;;;;5022451;28;19916;-81
2021/08/30 09:25:10;;;;;;;;;;;17.40;97.20;;;;;;5025014;28;20465;-81
2021/08/30 09:27:37;;;;;;;;;;;17.40;97.30;;;;;;5046710;28;20031;-80
2021/08/30 09:30:04;;;;;;;;;;;17.50;97.30;;;;;;5046713;28;20397;-82
2021/08/30 09:32:31;;;;;;;;;;;17.50;97.20;;;;;;5038180;28;20423;-78
2021/08/30 09:34:58;;;;;;;;;;;17.60;97.00;;;;;;5045539;28;19963;-80
2021/08/30 09:37:25;;;;;;;;;;;17.60;97.20;;;;;;5044306;28;20411;-80
2021/08/30 09:39:51;;;;;;;;;;;17.60;97.20;;;;;;5027940;28;20393;-80
2021/08/30 09:42:17;;;;;;;;;;;17.60;97.10;;;;;;5047966;28;19912;-83
2021/08/30 09:44:43;;;;;;;;;;;17.60;97.20;;;;;;5022714;28;19908;-83
2021/08/30 09:47:10;;;;;;;;;;;17.60;97.10;;;;;;5024105;28;19908;-83
2021/08/30 09:49:35;;;;;;;;;;;17.60;96.80;;;;;;5047990;28;19916;-83
2021/08/30 09:52:01;;;;;;;;;;;17.60;96.20;;;;;;5029745;28;20307;-83
2021/08/30 09:54:27;;;;;;;;;;;17.70;96.30;;;;;;5038017;28;19912;-83
2021/08/30 09:56:53;;;;;;;;;;;17.70;96.50;;;;;;5025831;28;20299;-82
2021/08/30 09:59:20;;;;;;;;;;;17.80;96.20;;;;;;5025087;28;20402;-81
2021/08/30 10:01:46;;;;;;;;;;;17.80;96.10;;;;;;5050723;28;20408;-84
2021/08/30 10:04:15;;;;;;;;;;;17.90;96.30;;;;;;5043770;28;20007;-84
2021/08/30 10:06:40;;;;;;;;;;;17.90;96.00;;;;;;5044674;28;20433;-84
2021/08/30 10:09:12;;;;;;;;;;;18.00;96.20;;;;;;5028444;28;19955;-81
2021/08/30 10:11:38;;;;;;;;;;;18.00;95.80;;;;;;5027982;28;19923;-80
2021/08/30 10:14:04;;;;;;;;;;;18.00;95.80;;;;;;5048720;28;19917;-79
2021/08/30 10:16:30;;;;;;;;;;;18.00;95.70;;;;;;5025066;28;19913;-84
2021/08/30 10:18:57;;;;;;;;;;;18.00;95.40;;;;;;5051071;28;19913;-84
2021/08/30 10:21:22;;;;;;;;;;;18.00;95.50;;;;;;5031553;28;19913;-88
2021/08/30 10:23:48;;;;;;;;;;;18.00;95.70;;;;;;5051333;28;19916;-79
2021/08/30 10:26:14;;;;;;;;;;;18.00;95.70;;;;;;5030333;28;19917;-80
2021/08/30 10:28:42;;;;;;;;;;;18.00;95.60;;;;;;5050872;28;19917;-80
2021/08/30 10:31:18;;;;;;;;;;;18.00;95.40;;;;;;5049029;28;19955;-78
2021/08/30 10:33:45;;;;;;;;;;;18.00;95.30;;;;;;5050770;28;19966;-80
2021/08/30 10:36:15;;;;;;;;;;;17.90;95.00;;;;;;5025289;28;19913;-80
2021/08/30 10:38:40;;;;;;;;;;;17.90;95.30;;;;;;5030167;28;19996;-80
2021/08/30 10:41:14;;;;;;;;;;;17.80;95.00;;;;;;5050094;28;20061;-80
2021/08/30 10:43:43;;;;;;;;;;;17.80;95.20;;;;;;5050789;28;19917;-79
2021/08/30 10:46:13;;;;;;;;;;;17.70;95.40;;;;;;5031006;28;19919;-80
2021/08/30 10:48:39;;;;;;;;;;;17.70;95.40;;;;;;5031592;28;20015;-79
2021/08/30 10:51:16;;;;;;;;;;;17.70;95.50;;;;;;5048820;28;19977;-80
2021/08/30 10:53:41;;;;;;;;;;;17.70;95.40;;;;;;5049194;28;20256;-78
2021/08/30 10:56:10;;;;;;;;;;;17.70;95.50;;;;;;5049829;28;19917;-78
2021/08/30 10:58:36;;;;;;;;;;;17.70;95.70;;;;;;5031552;28;19999;-78
2021/08/30 11:01:12;;;;;;;;;;;17.70;95.70;;;;;;5050104;28;19924;-78
2021/08/30 11:03:37;;;;;;;;;;;17.70;95.70;;;;;;5049014;28;19985;-82
2021/08/30 11:06:08;;;;;;;;;;;17.70;95.80;;;;;;5050719;28;19912;-81
2021/08/30 11:08:34;;;;;;;;;;;17.70;95.80;;;;;;5049472;28;19978;-81
2021/08/30 11:11:12;;;;;;;;;;;17.80;95.90;;;;;;5024462;28;19939;-79
2021/08/30 11:13:39;;;;;;;;;;;17.80;95.80;;;;;;5023842;28;19916;-81
2021/08/30 11:16:16;;;;;;;;;;;17.80;95.60;;;;;;5050457;28;19943;-80
2021/08/30 11:18:50;;;;;;;;;;;17.90;95.60;;;;;;5049824;28;20287;-80
2021/08/30 11:21:16;;;;;;;;;;;17.90;95.60;;;;;;5032418;28;20363;-81
2021/08/30 11:23:41;;;;;;;;;;;18.00;95.50;;;;;;5034687;28;19947;-79
2021/08/30 11:26:06;;;;;;;;;;;18.00;95.40;;;;;;5037566;28;20008;-80
2021/08/30 11:28:32;;;;;;;;;;;18.00;95.30;;;;;;5038966;28;20028;-79
2021/08/30 11:30:57;;;;;;;;;;;18.00;95.20;;;;;;5056077;28;19980;-79
2021/08/30 11:33:23;;;;;;;;;;;18.00;95.30;;;;;;5032898;28;19976;-79
2021/08/30 11:35:49;;;;;;;;;;;18.00;95.30;;;;;;5051024;28;19917;-77
2021/08/30 11:38:14;;;;;;;;;;;18.00;95.20;;;;;;5049392;28;19924;-77
2021/08/30 11:40:41;;;;;;;;;;;18.00;95.40;;;;;;5050009;28;19913;-78
2021/08/30 11:43:13;;;;;;;;;;;18.00;95.30;;;;;;5044833;28;19917;-79
2021/08/30 11:45:39;;;;;;;;;;;17.90;95.30;;;;;;5047064;28;20378;-79
2021/08/30 11:48:04;;;;;;;;;;;17.80;95.40;;;;;;5050055;28;19955;-79
2021/08/30 11:50:30;;;;;;;;;;;17.90;95.50;;;;;;5030365;28;19927;-80
2021/08/30 11:52:59;;;;;;;;;;;18.00;95.60;;;;;;5049259;28;19915;-78
2021/08/30 11:55:25;;;;;;;;;;;18.00;95.50;;;;;;5047701;28;20392;-78
2021/08/30 11:57:59;;;;;;;;;;;18.00;95.50;;;;;;5050900;28;20003;-78
2021/08/30 12:00:24;;;;;;;;;;;18.00;95.60;;;;;;5009946;23;19926;-77
2021/08/30 12:02:51;;;;;;;;;;;18.10;95.20;;;;;;4958521;28;20418;-79
2021/08/30 12:05:16;;;;;;;;;;;18.10;95.40;;;;;;4959160;28;19919;-78
2021/08/30 12:07:42;;;;;;;;;;;18.10;95.20;;;;;;4959495;28;20280;-78
2021/08/30 12:10:09;;;;;;;;;;;18.10;95.30;;;;;;4957597;28;19922;-78
2021/08/30 12:12:37;;;;;;;;;;;18.10;95.30;;;;;;4948005;28;19922;-78
2021/08/30 12:15:07;;;;;;;;;;;18.10;95.30;;;;;;4964909;28;19918;-78
2021/08/30 12:17:34;;;;;;;;;;;18.10;95.30;;;;;;4958653;28;19972;-76
2021/08/30 12:20:01;;;;;;;;;;;18.10;95.30;;;;;;4969364;28;19914;-77
2021/08/30 12:22:28;;;;;;;;;;;18.20;95.30;;;;;;4942234;28;19918;-78
2021/08/30 12:25:00;;;;;;;;;;;18.20;95.40;;;;;;4962453;28;19911;-78
2021/08/30 12:27:29;;;;;;;;;;;18.10;95.20;;;;;;4950308;28;19963;-79
2021/08/30 12:29:54;;;;;;;;;;;18.10;95.20;;;;;;4962226;28;19924;-79
2021/08/30 12:32:20;;;;;;;;;;;18.10;95.40;;;;;;4976000;28;19993;-79
2021/08/30 12:34:45;;;;;;;;;;;18.10;95.40;;;;;;4964572;28;19933;-79
2021/08/30 12:37:11;;;;;;;;;;;18.00;95.50;;;;;;4958004;28;20373;-78
2021/08/30 12:39:36;;;;;;;;;;;18.00;95.90;;;;;;4957931;28;19922;-77
2021/08/30 12:42:02;;;;;;;;;;;17.90;97.10;;;;;;4956479;28;19976;-73
2021/08/30 12:44:27;;;;;;;;;;;17.30;98.60;;;;;;4958313;28;19919;-75
2021/08/30 12:46:53;;;;;;;;;;;16.90;99.40;;;;;;4960224;28;19918;-76
2021/08/30 12:49:18;;;;;;;;;;;16.60;99.50;;;;;;4940481;28;19968;-79
2021/08/30 12:51:44;;;;;;;;;;;16.40;99.90;;;;;;4957738;28;19918;-77
2021/08/30 12:54:09;;;;;;;;;;;16.20;99.90;;;;;;4943458;28;20037;-78
2021/08/30 12:56:34;;;;;;;;;;;16.20;99.90;;;;;;4960070;28;19918;-76
2021/08/30 12:59:00;;;;;;;;;;;16.20;99.90;;;;;;4957254;28;19915;-77
2021/08/30 13:01:25;;;;;;;;;;;16.20;99.90;;;;;;4946963;28;20001;-78
2021/08/30 13:03:51;;;;;;;;;;;16.30;99.90;;;;;;4956862;28;20361;-78
2021/08/30 13:06:16;;;;;;;;;;;16.30;99.90;;;;;;4959892;28;19914;-78
2021/08/30 13:08:42;;;;;;;;;;;16.30;99.90;;;;;;4955755;28;19919;-77
2021/08/30 13:11:07;;;;;;;;;;;16.30;99.90;;;;;;4957671;28;19923;-79
2021/08/30 13:13:33;;;;;;;;;;;16.30;99.90;;;;;;4938846;28;20641;-79
2021/08/30 13:15:58;;;;;;;;;;;16.30;99.90;;;;;;4940247;28;20065;-77
2021/08/30 13:18:23;;;;;;;;;;;16.40;99.90;;;;;;4956021;28;20053;-77
2021/08/30 13:20:50;;;;;;;;;;;16.50;99.90;;;;;;4957874;28;20301;-78
2021/08/30 13:23:16;;;;;;;;;;;16.50;99.90;;;;;;4956784;28;19911;-77
2021/08/30 13:25:42;;;;;;;;;;;16.60;99.90;;;;;;4957298;28;19922;-76
2021/08/30 13:28:08;;;;;;;;;;;16.60;99.90;;;;;;4939473;28;19914;-77
2021/08/30 13:30:34;;;;;;;;;;;16.80;99.90;;;;;;4941904;28;19947;-78
2021/08/30 13:33:00;;;;;;;;;;;16.90;99.90;;;;;;4959879;28;19914;-77
2021/08/30 13:35:26;;;;;;;;;;;17.00;99.90;;;;;;4957421;28;20281;-77
2021/08/30 13:37:55;;;;;;;;;;;17.10;99.90;;;;;;4957697;28;19944;-77
2021/08/30 13:40:21;;;;;;;;;;;17.20;99.90;;;;;;4956733;28;19914;-77
2021/08/30 13:42:46;;;;;;;;;;;17.30;99.90;;;;;;4941722;28;20296;-78
2021/08/30 13:45:12;;;;;;;;;;;17.40;99.90;;;;;;4954617;28;20398;-78
2021/08/30 13:47:38;;;;;;;;;;;17.50;99.90;;;;;;4958089;28;19919;-78
2021/08/30 13:50:04;;;;;;;;;;;17.60;99.90;;;;;;4960504;28;20005;-78
2021/08/30 13:52:30;;;;;;;;;;;17.70;99.90;;;;;;4958243;28;20306;-79
2021/08/30 13:54:56;;;;;;;;;;;17.80;99.90;;;;;;4943318;28;19925;-80
2021/08/30 13:57:21;;;;;;;;;;;17.80;99.90;;;;;;4961320;28;20005;-79
2021/08/30 13:59:47;;;;;;;;;;;17.90;99.90;;;;;;4960638;28;20083;-79
2021/08/30 14:02:13;;;;;;;;;;;18.00;99.80;;;;;;4943304;28;20296;-79
2021/08/30 14:04:39;;;;;;;;;;;18.00;99.40;;;;;;4961084;28;19997;-79
2021/08/30 14:07:04;;;;;;;;;;;18.00;99.20;;;;;;4959977;28;19919;-79
2021/08/30 14:09:30;;;;;;;;;;;18.10;99.10;;;;;;4944925;28;19979;-79
2021/08/30 14:11:57;;;;;;;;;;;18.10;98.90;;;;;;4943132;28;19919;-76
2021/08/30 14:14:23;;;;;;;;;;;18.10;98.60;;;;;;4947211;28;19914;-75